createdAt,value
2018-05-13T00:01:00.041Z,5.23
2018-05-13T00:03:03.780Z,6.63
2018-05-13T00:05:07.843Z,9.67
2018-05-13T00:07:11.924Z,5.83
2018-05-13T00:09:15.368Z,5.47
2018-05-13T00:11:18.691Z,5.13
2018-05-13T00:13:22.777Z,4.97
2018-05-13T00:15:26.144Z,4.40
2018-05-13T00:17:29.494Z,4.60
2018-05-13T00:19:32.834Z,7.70
2018-05-13T00:21:36.242Z,7.80
2018-05-13T00:23:39.558Z,7.93
2018-05-13T00:25:42.880Z,4.63
2018-05-13T00:27:46.955Z,8.73
2018-05-13T00:29:50.281Z,8.33
2018-05-13T00:31:53.578Z,5.30
2018-05-13T00:33:56.988Z,5.77
2018-05-13T00:36:00.292Z,8.10
2018-05-13T00:38:04.339Z,4.77
2018-05-13T00:40:07.658Z,7.23
2018-05-13T00:42:10.986Z,9.03
2018-05-13T00:44:14.296Z,5.90
2018-05-13T00:46:17.676Z,7.37
2018-05-13T00:48:20.993Z,5.73
2018-05-13T00:50:24.519Z,6.10
2018-05-13T00:52:27.865Z,9.90
2018-05-13T00:54:48.787Z,5.97
2018-05-13T00:56:52.139Z,11.67
2018-05-13T00:58:55.455Z,5.83
2018-05-13T01:00:58.744Z,7.17
2018-05-13T01:03:02.053Z,7.40
2018-05-13T01:05:05.388Z,5.10
2018-05-13T01:07:08.691Z,7.80
2018-05-13T01:09:12.006Z,7.27
2018-05-13T01:11:15.342Z,10.00
2018-05-13T01:13:19.419Z,6.07
2018-05-13T01:15:22.813Z,10.13
2018-05-13T01:17:26.166Z,7.60
2018-05-13T01:19:29.484Z,6.00
2018-05-13T01:21:32.795Z,6.50
2018-05-13T01:23:36.229Z,7.43
2018-05-13T01:25:39.529Z,5.50
2018-05-13T01:27:42.906Z,9.10
2018-05-13T01:29:46.216Z,7.17
2018-05-13T01:31:49.546Z,15.23
2018-05-13T01:33:52.846Z,7.60
2018-05-13T01:35:56.180Z,6.90
2018-05-13T01:37:59.500Z,5.00
2018-05-13T01:40:02.973Z,6.10
2018-05-13T01:42:06.341Z,7.40
2018-05-13T01:44:10.432Z,8.60
2018-05-13T01:46:13.733Z,6.73
2018-05-13T01:48:17.831Z,7.17
2018-05-13T01:50:31.837Z,5.53
2018-05-13T01:52:35.174Z,6.10
2018-05-13T01:54:40.222Z,10.63
2018-05-13T01:56:44.363Z,7.03
2018-05-13T01:58:47.705Z,6.53
2018-05-13T02:00:51.056Z,6.80
2018-05-13T02:02:54.382Z,11.63
2018-05-13T02:04:57.680Z,10.63
2018-05-13T02:07:01.795Z,7.30
2018-05-13T02:09:05.160Z,9.87
2018-05-13T02:11:08.480Z,7.50
2018-05-13T02:13:12.599Z,10.13
2018-05-13T02:15:16.666Z,5.23
2018-05-13T02:17:19.989Z,6.93
2018-05-13T02:19:24.195Z,7.13
2018-05-13T02:21:28.295Z,8.73
2018-05-13T02:23:31.595Z,8.43
2018-05-13T02:25:35.686Z,6.20
2018-05-13T02:27:39.450Z,7.50
2018-05-13T02:29:42.752Z,12.10
2018-05-13T02:31:46.066Z,8.60
2018-05-13T02:33:49.385Z,9.23
2018-05-13T02:35:53.467Z,20.10
2018-05-13T02:37:56.787Z,5.30
2018-05-13T02:40:00.857Z,6.33
2018-05-13T02:42:04.217Z,4.83
2018-05-13T02:44:07.645Z,6.70
2018-05-13T02:46:11.007Z,11.20
2018-05-13T02:48:14.338Z,12.00
2018-05-13T02:50:17.845Z,5.10
2018-05-13T02:52:21.179Z,6.80
2018-05-13T02:54:24.481Z,15.13
2018-05-13T02:56:27.888Z,10.13
2018-05-13T02:58:31.193Z,5.23
2018-05-13T03:00:34.492Z,7.00
2018-05-13T03:02:38.298Z,7.10
2018-05-13T03:04:41.606Z,6.43
2018-05-13T03:06:45.712Z,8.73
2018-05-13T03:08:49.041Z,13.73
2018-05-13T03:10:52.400Z,6.90
2018-05-13T03:12:55.715Z,7.60
2018-05-13T03:14:59.804Z,10.10
2018-05-13T03:17:03.891Z,10.73
2018-05-13T03:19:07.225Z,5.47
2018-05-13T03:21:10.549Z,6.77
2018-05-13T03:23:13.856Z,10.40
2018-05-13T03:25:17.149Z,9.93
2018-05-13T03:27:20.476Z,9.40
2018-05-13T03:29:24.675Z,8.97
2018-05-13T03:31:28.064Z,9.97
2018-05-13T03:33:31.386Z,7.97
2018-05-13T03:35:34.695Z,9.67
2018-05-13T03:37:38.068Z,9.00
2018-05-13T03:39:41.448Z,8.93
2018-05-13T03:41:44.807Z,8.60
2018-05-13T03:43:48.114Z,6.37
2018-05-13T03:45:51.442Z,10.83
2018-05-13T03:47:54.774Z,9.00
2018-05-13T03:49:58.097Z,8.77
2018-05-13T03:52:01.463Z,12.80
2018-05-13T03:54:04.765Z,8.10
2018-05-13T03:56:08.096Z,13.30
2018-05-13T03:58:11.452Z,9.50
2018-05-13T04:02:41.732Z,8.40
2018-05-13T04:04:45.087Z,8.13
2018-05-13T04:06:48.408Z,9.23
2018-05-13T04:09:09.193Z,8.50
2018-05-13T04:11:29.950Z,8.37
2018-05-13T04:13:50.762Z,9.27
2018-05-13T04:15:54.156Z,21.73
2018-05-13T04:17:57.514Z,10.23
2018-05-13T04:20:00.880Z,11.37
2018-05-13T04:22:04.371Z,10.10
2018-05-13T04:24:07.739Z,18.17
2018-05-13T04:26:11.098Z,8.87
2018-05-13T04:28:15.405Z,9.20
2018-05-13T04:30:19.582Z,10.80
2018-05-13T04:32:24.533Z,8.97
2018-05-13T04:34:27.895Z,6.90
2018-05-13T04:36:31.291Z,10.50
2018-05-13T04:38:34.882Z,10.27
2018-05-13T04:40:38.206Z,8.97
2018-05-13T04:42:41.572Z,12.53
2018-05-13T04:44:44.945Z,9.13
2018-05-13T04:46:48.297Z,7.87
2018-05-13T04:48:51.668Z,7.60
2018-05-13T04:50:55.839Z,6.70
2018-05-13T04:52:59.209Z,10.27
2018-05-13T04:55:03.320Z,8.53
2018-05-13T04:57:07.519Z,10.60
2018-05-13T04:59:10.831Z,11.97
2018-05-13T05:01:14.209Z,8.53
2018-05-13T05:03:18.287Z,8.60
2018-05-13T05:05:21.593Z,11.30
2018-05-13T05:07:25.207Z,14.33
2018-05-13T05:09:29.344Z,12.60
2018-05-13T05:11:32.650Z,16.20
2018-05-13T05:13:36.017Z,9.13
2018-05-13T05:15:39.376Z,10.43
2018-05-13T05:17:42.739Z,25.63
2018-05-13T05:19:47.237Z,10.97
2018-05-13T05:21:50.607Z,18.10
2018-05-13T05:23:55.835Z,9.80
2018-05-13T05:28:00.641Z,11.93
2018-05-13T05:30:03.989Z,15.93
2018-05-13T05:32:07.499Z,11.23
2018-05-13T05:34:10.936Z,12.40
2018-05-13T05:36:14.247Z,9.50
2018-05-13T05:38:18.404Z,17.13
2018-05-13T05:40:21.802Z,13.40
2018-05-13T05:42:25.240Z,10.60
2018-05-13T05:44:29.552Z,10.87
2018-05-13T05:46:33.024Z,8.87
2018-05-13T05:48:37.178Z,12.63
2018-05-13T05:50:42.154Z,12.63
2018-05-13T05:52:45.715Z,9.60
2018-05-13T05:54:49.055Z,12.67
2018-05-13T05:56:52.416Z,11.10
2018-05-13T05:58:55.947Z,15.73
2018-05-13T06:00:59.273Z,10.50
2018-05-13T06:03:03.437Z,15.80
2018-05-13T06:05:07.453Z,12.23
2018-05-13T06:07:10.856Z,13.50
2018-05-13T06:09:14.305Z,18.23
2018-05-13T06:11:17.689Z,14.43
2018-05-13T06:13:21.002Z,25.40
2018-05-13T06:15:24.333Z,12.13
2018-05-13T06:17:28.715Z,13.70
2018-05-13T06:19:32.093Z,13.83
2018-05-13T06:21:35.543Z,16.17
2018-05-13T06:23:39.076Z,16.73
2018-05-13T06:25:42.401Z,13.70
2018-05-13T06:27:45.772Z,15.50
2018-05-13T06:29:55.664Z,19.13
2018-05-13T06:31:59.491Z,16.07
2018-05-13T06:34:02.821Z,12.40
2018-05-13T06:36:07.170Z,16.80
2018-05-13T06:38:12.585Z,18.37
2018-05-13T06:40:18.523Z,13.00
2018-05-13T06:42:22.032Z,22.03
2018-05-13T06:44:25.458Z,18.73
2018-05-13T06:46:28.901Z,17.03
2018-05-13T06:48:32.316Z,15.40
2018-05-13T06:50:36.830Z,14.17
2018-05-13T06:52:40.353Z,20.83
2018-05-13T06:56:55.989Z,19.10
2018-05-13T06:58:59.362Z,14.50
2018-05-13T07:01:02.733Z,16.40
2018-05-13T07:03:06.194Z,18.60
2018-05-13T07:05:10.049Z,18.83
2018-05-13T07:07:13.361Z,20.20
2018-05-13T07:09:17.034Z,25.30
2018-05-13T07:11:20.417Z,17.70
2018-05-13T07:13:23.736Z,22.93
2018-05-13T07:15:27.212Z,21.23
2018-05-13T07:17:31.299Z,17.90
2018-05-13T07:19:34.668Z,20.17
2018-05-13T07:21:38.211Z,15.50
2018-05-13T07:23:41.549Z,18.80
2018-05-13T07:25:44.930Z,24.70
2018-05-13T07:27:48.464Z,19.40
2018-05-13T07:29:52.632Z,20.57
2018-05-13T07:31:55.947Z,18.63
2018-05-13T07:33:59.531Z,20.17
2018-05-13T07:36:02.907Z,15.87
2018-05-13T07:38:06.363Z,28.20
2018-05-13T07:40:09.811Z,17.57
2018-05-13T07:42:13.162Z,17.60
2018-05-13T07:44:16.489Z,22.67
2018-05-13T07:46:19.999Z,22.87
2018-05-13T07:48:23.915Z,24.27
2018-05-13T07:50:27.296Z,22.37
2018-05-13T07:52:31.891Z,25.73
2018-05-13T07:54:35.259Z,29.00
2018-05-13T07:56:38.691Z,27.30
2018-05-13T07:58:42.144Z,31.20
2018-05-13T08:00:45.497Z,29.73
2018-05-13T08:02:48.863Z,43.00
2018-05-13T08:04:52.373Z,35.63
2018-05-13T08:06:56.452Z,32.50
2018-05-13T08:09:04.292Z,39.47
2018-05-13T08:11:08.708Z,32.47
2018-05-13T08:13:12.052Z,32.50
2018-05-13T08:15:15.388Z,38.70
2018-05-13T08:17:18.948Z,38.57
2018-05-13T08:19:22.293Z,35.10
2018-05-13T08:21:25.654Z,35.47
2018-05-13T08:23:29.907Z,37.67
2018-05-13T08:25:33.229Z,33.27
2018-05-13T08:27:36.604Z,37.77
2018-05-13T08:29:40.193Z,34.53
2018-05-13T08:31:43.539Z,37.67
2018-05-13T08:33:46.884Z,32.47
2018-05-13T08:35:50.457Z,33.80
2018-05-13T08:37:53.860Z,43.00
2018-05-13T08:39:57.253Z,43.30
2018-05-13T08:42:01.413Z,42.67
2018-05-13T08:44:04.752Z,41.27
2018-05-13T08:46:08.108Z,38.93
2018-05-13T08:48:12.433Z,42.27
2018-05-13T08:50:15.779Z,46.57
2018-05-13T08:52:19.258Z,44.00
2018-05-13T08:54:22.732Z,49.00
2018-05-13T08:56:26.220Z,44.07
2018-05-13T08:58:29.751Z,50.23
2018-05-13T09:00:33.296Z,51.63
2018-05-13T09:02:36.754Z,50.00
2018-05-13T09:04:40.552Z,55.47
2018-05-13T09:06:44.064Z,50.60
2018-05-13T09:08:48.197Z,57.73
2018-05-13T09:10:51.596Z,49.07
2018-05-13T09:12:56.490Z,58.87
2018-05-13T09:15:00.901Z,49.13
2018-05-13T09:17:04.649Z,52.63
2018-05-13T09:19:09.576Z,59.37
2018-05-13T09:21:13.770Z,57.30
2018-05-13T09:23:18.572Z,57.47
2018-05-13T09:25:22.116Z,60.17
2018-05-13T09:27:25.596Z,73.40
2018-05-13T09:29:30.017Z,72.07
2018-05-13T09:31:33.579Z,61.60
2018-05-13T09:33:38.865Z,62.60
2018-05-13T09:35:44.134Z,73.37
2018-05-13T09:37:48.006Z,69.03
2018-05-13T09:39:51.766Z,62.93
2018-05-13T09:41:55.967Z,68.17
2018-05-13T09:43:59.611Z,63.23
2018-05-13T09:46:02.967Z,61.67
2018-05-13T09:48:07.095Z,63.70
2018-05-13T09:50:11.649Z,63.97
2018-05-13T09:52:17.592Z,68.10
2018-05-13T09:54:21.454Z,78.70
2018-05-13T09:56:25.743Z,71.53
2018-05-13T09:58:29.177Z,73.17
2018-05-13T10:00:33.416Z,88.27
2018-05-13T10:02:37.010Z,76.63
2018-05-13T10:04:41.406Z,81.57
2018-05-13T10:06:44.894Z,82.13
2018-05-13T10:08:49.068Z,77.17
2018-05-13T10:10:53.579Z,78.97
2018-05-13T10:12:57.474Z,81.17
2018-05-13T10:15:00.977Z,78.40
2018-05-13T10:17:04.510Z,76.07
2018-05-13T10:19:08.135Z,91.83
2018-05-13T10:21:11.553Z,89.40
2018-05-13T10:23:15.188Z,84.20
2018-05-13T10:25:18.599Z,73.73
2018-05-13T10:27:23.764Z,87.73
2018-05-13T10:29:32.686Z,79.70
2018-05-13T10:31:36.839Z,76.87
2018-05-13T10:33:40.637Z,79.20
2018-05-13T10:35:45.012Z,79.13
2018-05-13T10:37:48.699Z,78.07
2018-05-13T10:39:52.219Z,83.83
2018-05-13T10:41:56.065Z,92.07
2018-05-13T10:43:59.668Z,88.10
2018-05-13T10:46:03.180Z,85.50
2018-05-13T10:48:07.328Z,82.40
2018-05-13T10:50:11.538Z,79.37
2018-05-13T10:52:15.174Z,74.93
2018-05-13T10:54:18.813Z,0.80
2018-05-13T10:56:22.166Z,0.60
2018-05-13T10:58:25.723Z,0.50
2018-05-13T11:00:29.159Z,0.63
2018-05-13T11:02:32.567Z,0.50
2018-05-13T11:04:36.017Z,1.83
2018-05-13T11:06:40.853Z,0.50
2018-05-13T11:08:51.044Z,0.60
2018-05-13T11:10:55.103Z,0.70
2018-05-13T11:12:58.907Z,0.50
2018-05-13T11:15:04.300Z,0.50
2018-05-13T11:17:09.035Z,0.50
2018-05-13T11:19:13.413Z,0.50
2018-05-13T11:21:16.939Z,0.53
2018-05-13T11:23:20.552Z,0.87
2018-05-13T11:25:32.723Z,0.50
2018-05-13T11:27:41.339Z,0.60
2018-05-13T11:29:49.891Z,0.50
2018-05-13T11:31:54.359Z,0.50
2018-05-13T11:33:58.578Z,0.50
2018-05-13T11:36:02.756Z,0.97
2018-05-13T11:38:08.967Z,0.47
2018-05-13T11:40:12.494Z,1.50
2018-05-13T11:42:16.125Z,2.77
2018-05-13T11:44:19.989Z,0.60
2018-05-13T11:46:27.213Z,3.80
2018-05-13T11:48:31.584Z,0.60
2018-05-13T11:50:35.894Z,0.50
2018-05-13T11:52:45.961Z,1.63
2018-05-13T11:54:54.183Z,0.50
2018-05-13T11:56:58.127Z,0.53
2018-05-13T11:59:02.788Z,0.57
2018-05-13T12:01:08.930Z,0.50
2018-05-13T12:03:15.908Z,0.50
2018-05-13T12:05:22.981Z,0.60
2018-05-13T12:07:28.866Z,0.50
2018-05-13T12:09:33.250Z,0.50
2018-05-13T12:11:59.426Z,0.50
2018-05-13T12:14:03.894Z,0.50
2018-05-13T12:16:07.876Z,0.50
2018-05-13T12:18:12.058Z,0.60
2018-05-13T12:20:16.173Z,1.63
2018-05-13T12:22:20.907Z,32.97
2018-05-13T12:24:25.301Z,0.70
2018-05-13T12:26:28.752Z,0.60
2018-05-13T12:28:33.170Z,0.50
2018-05-13T12:30:36.694Z,0.50
2018-05-13T12:32:44.020Z,0.90
2018-05-13T12:34:47.458Z,0.53
2018-05-13T12:36:54.016Z,0.50
2018-05-13T12:39:00.250Z,0.50
2018-05-13T12:41:05.127Z,0.50
2018-05-13T12:43:13.298Z,0.50
2018-05-13T12:45:17.313Z,0.60
2018-05-13T12:47:21.280Z,0.50
2018-05-13T12:49:24.787Z,0.50
2018-05-13T12:51:28.591Z,3.13
2018-05-13T12:53:32.278Z,0.50
2018-05-13T12:55:39.737Z,0.53
2018-05-13T12:57:45.047Z,0.70
2018-05-13T12:59:58.214Z,0.93
2018-05-13T13:04:14.090Z,0.50
2018-05-13T13:06:20.923Z,0.50
2018-05-13T13:08:27.764Z,0.80
2018-05-13T13:10:32.869Z,0.80
2018-05-13T13:12:38.673Z,0.50
2018-05-13T13:14:45.658Z,0.70
2018-05-13T13:16:50.604Z,1.43
2018-05-13T13:18:55.114Z,1.77
2018-05-13T13:21:05.279Z,0.50
2018-05-13T13:23:09.422Z,0.50
2018-05-13T13:25:15.102Z,0.50
2018-05-13T13:27:19.857Z,0.50
2018-05-13T13:29:23.781Z,0.50
2018-05-13T13:31:28.918Z,0.50
2018-05-13T13:33:32.417Z,0.50
2018-05-13T13:35:36.979Z,0.50
2018-05-13T13:37:41.181Z,0.50
2018-05-13T13:39:45.517Z,0.50
2018-05-13T13:41:52.857Z,2.93
2018-05-13T13:43:56.552Z,0.50
2018-05-13T13:46:02.487Z,0.50
2018-05-13T13:48:06.450Z,1.07
2018-05-13T13:50:10.034Z,0.50
2018-05-13T13:52:16.731Z,0.50
2018-05-13T13:54:21.075Z,5.03
2018-05-13T13:56:24.507Z,0.50
2018-05-13T13:58:30.380Z,0.50
2018-05-13T14:00:43.592Z,0.40
2018-05-13T14:02:47.248Z,0.57
2018-05-13T14:04:54.024Z,1.17
2018-05-13T14:06:57.684Z,0.50
2018-05-13T14:09:01.073Z,0.50
2018-05-13T14:11:04.977Z,1.37
2018-05-13T14:13:10.635Z,0.50
2018-05-13T14:15:14.084Z,1.23
2018-05-13T14:17:21.339Z,1.53
2018-05-13T14:19:25.383Z,1.07
2018-05-13T14:21:29.557Z,0.50
2018-05-13T14:23:36.165Z,0.77
2018-05-13T14:25:51.324Z,5.50
2018-05-13T14:27:59.085Z,0.50
2018-05-13T14:30:08.134Z,0.70
2018-05-13T14:32:12.441Z,0.50
2018-05-13T14:34:17.632Z,0.67
2018-05-13T14:36:23.360Z,0.50
2018-05-13T14:38:26.817Z,0.50
2018-05-13T14:40:32.022Z,0.50
2018-05-13T14:42:36.070Z,1.50
2018-05-13T14:44:41.279Z,0.50
2018-05-13T14:46:45.939Z,0.50
2018-05-13T14:48:50.284Z,0.50
2018-05-13T14:50:53.751Z,0.70
2018-05-13T14:52:58.127Z,1.77
2018-05-13T14:55:02.604Z,0.50
2018-05-13T14:57:06.313Z,0.50
2018-05-13T14:59:12.098Z,0.50
2018-05-13T15:01:17.334Z,0.50
2018-05-13T15:03:27.517Z,0.60
2018-05-13T15:05:39.133Z,0.50
2018-05-13T15:07:45.251Z,0.70
2018-05-13T15:12:07.359Z,0.50
2018-05-13T15:27:35.255Z,0.40
2018-05-13T15:29:39.340Z,0.50
2018-05-13T15:31:44.050Z,0.50
2018-05-13T15:33:47.526Z,0.50
2018-05-13T15:35:50.917Z,0.50
2018-05-13T15:37:54.935Z,0.83
2018-05-13T15:39:58.665Z,0.47
2018-05-13T15:42:02.281Z,0.50
2018-05-13T15:44:06.851Z,0.50
2018-05-13T15:46:11.763Z,0.50
2018-05-13T15:48:15.814Z,0.50
2018-05-13T15:50:19.292Z,3.80
2018-05-13T15:52:23.530Z,0.50
2018-05-13T15:54:30.835Z,0.50
2018-05-13T15:56:52.029Z,0.50
2018-05-13T15:58:56.688Z,0.50
2018-05-13T16:01:00.303Z,0.60
2018-05-13T16:03:03.746Z,0.50
2018-05-13T16:05:08.163Z,0.50
2018-05-13T16:07:12.038Z,0.50
2018-05-13T16:09:15.441Z,1.53
2018-05-13T16:11:19.038Z,0.50
2018-05-13T16:13:28.352Z,0.40
2018-05-13T16:15:32.209Z,0.47
2018-05-13T16:17:40.915Z,0.50
2018-05-13T16:19:46.005Z,0.80
2018-05-13T16:21:50.729Z,0.50
2018-05-13T16:23:54.439Z,0.50
2018-05-13T16:25:58.888Z,4.80
2018-05-13T16:28:02.263Z,0.73
2018-05-13T16:30:05.861Z,0.50
2018-05-13T16:32:11.024Z,0.60
2018-05-13T16:34:15.896Z,0.50
2018-05-13T16:36:21.146Z,0.50
2018-05-13T16:38:40.446Z,0.60
2018-05-13T16:42:59.050Z,0.50
2018-05-13T16:45:05.058Z,0.50
2018-05-13T16:47:10.404Z,0.50
2018-05-13T16:49:18.685Z,0.60
2018-05-13T16:56:01.688Z,0.50
2018-05-13T17:02:34.641Z,0.50
2018-05-13T17:04:58.823Z,0.50
2018-05-13T17:09:22.460Z,0.60
2018-05-13T17:13:43.767Z,2.00
2018-05-13T17:15:55.552Z,6.63
2018-05-13T17:18:00.330Z,0.50
2018-05-13T17:20:04.316Z,0.50
2018-05-13T17:22:10.225Z,0.50
2018-05-13T17:31:07.745Z,0.50
2018-05-13T17:33:11.683Z,0.50
2018-05-13T17:35:16.043Z,0.43
2018-05-13T17:37:21.546Z,1.23
2018-05-13T17:39:26.731Z,0.50
2018-05-13T17:43:42.032Z,0.47
2018-05-13T17:45:47.315Z,1.20
2018-05-13T17:47:53.252Z,0.50
2018-05-13T17:49:56.946Z,0.50
2018-05-13T17:52:02.025Z,0.80
2018-05-13T17:54:07.157Z,0.50
2018-05-13T17:56:13.655Z,0.50
2018-05-13T17:58:21.602Z,0.50
2018-05-13T18:00:27.227Z,0.50
2018-05-13T18:02:31.708Z,0.50
2018-05-13T18:04:35.898Z,1.63
2018-05-13T18:06:45.036Z,0.50
2018-05-13T18:08:48.470Z,1.53
2018-05-13T18:10:52.529Z,0.50
2018-05-13T18:12:57.506Z,0.50
2018-05-13T18:15:02.388Z,0.50
2018-05-13T18:17:11.510Z,0.53
2018-05-13T18:19:15.681Z,0.50
2018-05-13T18:21:20.138Z,0.50
2018-05-13T18:23:23.791Z,0.53
2018-05-13T18:25:29.103Z,1.77
2018-05-13T18:27:32.668Z,0.50
2018-05-13T18:29:36.486Z,0.50
2018-05-13T18:32:02.177Z,0.50
2018-05-13T18:35:26.678Z,0.50
2018-05-13T18:37:30.331Z,0.50
2018-05-13T18:41:52.347Z,0.50
2018-05-13T18:43:58.860Z,0.50
2018-05-13T18:46:06.834Z,1.23
2018-05-13T18:48:12.502Z,0.50
2018-05-13T18:50:23.096Z,0.50
2018-05-13T18:52:27.509Z,0.50
2018-05-13T18:54:31.876Z,0.50
2018-05-13T18:56:36.134Z,0.50
2018-05-13T18:58:39.812Z,0.50
2018-05-13T19:00:43.386Z,0.50
2018-05-13T19:02:50.191Z,0.50
2018-05-13T19:04:56.548Z,0.50
2018-05-13T19:07:00.644Z,0.60
2018-05-13T19:09:04.802Z,0.50
2018-05-13T19:11:13.417Z,0.50
2018-05-13T19:13:21.824Z,0.50
2018-05-13T19:15:34.392Z,74.17
2018-05-13T19:17:44.035Z,0.90
2018-05-13T19:19:49.707Z,0.50
2018-05-13T19:21:54.211Z,0.50
2018-05-13T19:23:57.946Z,0.47
2018-05-13T19:26:01.424Z,1.53
2018-05-13T19:28:06.527Z,0.83
2018-05-13T19:30:10.114Z,0.50
2018-05-13T19:32:13.537Z,0.50
2018-05-13T19:34:16.907Z,4.93
2018-05-13T19:36:20.677Z,0.80
2018-05-13T19:38:25.592Z,1.17
2018-05-13T19:40:29.872Z,0.50
2018-05-13T19:42:34.676Z,0.50
2018-05-13T19:44:38.748Z,0.47
2018-05-13T19:47:16.117Z,0.50
2018-05-13T19:49:20.219Z,3.80
2018-05-13T19:51:28.584Z,0.50
2018-05-13T19:53:32.231Z,0.50
2018-05-13T19:55:37.011Z,0.80
2018-05-13T19:57:41.160Z,0.50
2018-05-13T19:59:45.731Z,0.50
2018-05-13T20:01:52.249Z,41.50
2018-05-13T20:04:00.424Z,56.40
2018-05-13T20:06:10.124Z,59.90
2018-05-13T20:08:16.060Z,47.17
2018-05-13T20:10:22.212Z,69.23
2018-05-13T20:12:29.311Z,61.93
2018-05-13T20:14:33.536Z,58.83
2018-05-13T20:16:40.088Z,58.80
2018-05-13T20:18:44.567Z,57.13
2018-05-13T20:20:48.834Z,58.70
2018-05-13T20:25:35.839Z,62.57
2018-05-13T20:27:40.372Z,52.80
2018-05-13T20:29:44.289Z,71.10
2018-05-13T20:31:49.313Z,52.53
2018-05-13T20:33:53.050Z,59.87
2018-05-13T20:35:57.229Z,58.33
2018-05-13T20:38:00.905Z,64.90
2018-05-13T20:40:05.311Z,55.97
2018-05-13T20:42:09.718Z,56.47
2018-05-13T20:44:14.135Z,64.73
2018-05-13T20:46:18.515Z,54.90
2018-05-13T20:48:22.134Z,55.67
2018-05-13T20:50:26.046Z,60.57
2018-05-13T20:52:29.556Z,63.30
2018-05-13T20:54:35.324Z,52.23
2018-05-13T20:56:39.688Z,53.57
2018-05-13T20:58:43.593Z,70.07
2018-05-13T21:00:47.608Z,58.73
2018-05-13T21:02:51.049Z,62.73
2018-05-13T21:04:54.530Z,52.70
2018-05-13T21:06:58.107Z,78.07
2018-05-13T21:09:02.026Z,62.20
2018-05-13T21:11:05.570Z,60.83
2018-05-13T21:13:08.886Z,56.50
2018-05-13T21:15:12.388Z,64.60
2018-05-13T21:17:15.997Z,68.67
2018-05-13T21:19:19.478Z,67.17
2018-05-13T21:21:22.911Z,59.67
2018-05-13T21:23:26.314Z,65.50
2018-05-13T21:25:30.427Z,74.47
2018-05-13T21:27:34.733Z,63.30
2018-05-13T21:29:38.135Z,78.27
2018-05-13T21:31:41.624Z,62.77
2018-05-13T21:33:45.754Z,59.93
2018-05-13T21:35:49.099Z,70.77
2018-05-13T21:37:52.494Z,67.10
2018-05-13T21:39:55.908Z,82.17
2018-05-13T21:42:01.059Z,70.20
2018-05-13T21:44:05.554Z,68.77
2018-05-13T21:46:09.963Z,64.10
2018-05-13T21:48:14.361Z,79.70
2018-05-13T21:50:18.798Z,83.33
2018-05-13T21:52:23.219Z,73.37
2018-05-13T21:54:27.607Z,71.00
2018-05-13T21:56:32.081Z,68.70
2018-05-13T21:58:37.554Z,64.50
2018-05-13T22:00:42.119Z,75.90
2018-05-13T22:02:46.449Z,88.27
2018-05-13T22:05:00.792Z,71.80
2018-05-13T22:07:10.325Z,63.90
2018-05-13T22:09:15.762Z,72.57
2018-05-13T22:11:20.587Z,67.80
2018-05-13T22:13:25.002Z,66.23
2018-05-13T22:15:29.193Z,55.73
2018-05-13T22:17:33.523Z,0.70
2018-05-13T22:19:37.975Z,0.50
2018-05-13T22:21:41.993Z,0.50
2018-05-13T22:23:45.381Z,0.50
2018-05-13T22:25:48.835Z,0.50
2018-05-13T22:27:52.315Z,0.50
2018-05-13T22:29:55.781Z,0.50
2018-05-13T22:31:59.201Z,2.50
2018-05-13T22:34:02.547Z,0.50
2018-05-13T22:36:06.657Z,0.50
2018-05-13T22:38:10.365Z,0.50
2018-05-13T22:40:13.777Z,0.43
2018-05-13T22:42:17.221Z,0.50
2018-05-13T22:44:20.724Z,1.83
2018-05-13T22:46:24.866Z,0.50
2018-05-13T22:48:29.145Z,0.50
2018-05-13T22:50:32.671Z,0.67
2018-05-13T22:52:36.117Z,1.37
2018-05-13T22:54:39.549Z,0.40
2018-05-13T22:56:42.963Z,2.00
2018-05-13T22:58:46.366Z,0.50
2018-05-13T23:00:49.832Z,0.83
2018-05-13T23:02:53.931Z,0.53
2018-05-13T23:04:58.071Z,0.40
2018-05-13T23:07:01.465Z,0.50
2018-05-13T23:09:04.981Z,4.90
2018-05-13T23:11:09.148Z,0.47
2018-05-13T23:13:13.311Z,0.50
2018-05-13T23:15:16.803Z,1.77
2018-05-13T23:17:20.973Z,1.60
2018-05-13T23:19:25.218Z,0.40
2018-05-13T23:21:28.581Z,0.50
2018-05-13T23:23:31.970Z,0.40
2018-05-13T23:25:36.112Z,0.40
2018-05-13T23:27:39.478Z,0.47
2018-05-13T23:29:43.642Z,0.50
2018-05-13T23:31:46.984Z,0.97
2018-05-13T23:33:50.344Z,0.40
2018-05-13T23:35:53.697Z,0.70
2018-05-13T23:37:57.289Z,0.50
2018-05-13T23:40:00.695Z,0.60
2018-05-13T23:42:04.034Z,1.10
2018-05-13T23:44:08.282Z,0.50
2018-05-13T23:46:11.812Z,1.33
2018-05-13T23:48:15.185Z,0.40
2018-05-13T23:50:18.588Z,1.20
2018-05-13T23:52:21.963Z,0.50
2018-05-13T23:54:27.348Z,0.40
2018-05-13T23:56:30.684Z,0.60
2018-05-13T23:58:34.035Z,2.20
